Time;durP1;ratioP1;P1;durP2;ratioP2;P2;SDS_P1;SDS_P2;PMS_P1;PMS_P2;Temp;Humidity;BMP_temperature;BMP_pressure;BME280_temperature;BME280_humidity;BME280_pressure;Samples;Min_cycle;Max_cycle;Signal;HPM_P1;HPM_P2
2021/11/27 00:00:08;;;;;;;3.40;2.90;;;2.10;99.90;;;;;;6172912;23;20788;-89
2021/11/27 00:02:34;;;;;;;4.83;3.60;;;2.10;99.90;;;;;;6175475;23;20399;-89
2021/11/27 00:05:00;;;;;;;4.00;3.33;;;2.00;99.90;;;;;;6175909;23;20888;-89
2021/11/27 00:07:26;;;;;;;5.73;3.80;;;2.00;99.90;;;;;;6176595;23;20558;-88
2021/11/27 00:09:51;;;;;;;4.93;4.17;;;2.00;99.90;;;;;;6175089;23;20440;-90
2021/11/27 00:12:17;;;;;;;3.87;3.40;;;2.00;99.90;;;;;;6173146;23;20502;-90
2021/11/27 00:14:43;;;;;;;4.40;3.50;;;2.00;99.90;;;;;;6176527;23;20249;-90
2021/11/27 00:17:08;;;;;;;4.30;3.27;;;2.00;99.90;;;;;;6191400;23;20175;-89
2021/11/27 00:19:34;;;;;;;3.67;2.90;;;1.90;99.90;;;;;;6174627;23;20171;-88
2021/11/27 00:22:00;;;;;;;4.00;3.10;;;2.00;99.90;;;;;;6175629;23;20183;-90
2021/11/27 00:24:28;;;;;;;6.30;3.53;;;2.10;99.90;;;;;;6174036;23;20629;-89
2021/11/27 00:26:54;;;;;;;4.43;3.60;;;2.10;99.90;;;;;;6170008;23;20210;-90
2021/11/27 00:29:23;;;;;;;3.83;3.17;;;2.10;99.90;;;;;;6172482;23;20905;-88
2021/11/27 00:31:51;;;;;;;3.43;3.10;;;2.10;99.90;;;;;;6174749;23;20569;-89
2021/11/27 00:34:17;;;;;;;3.40;2.90;;;2.10;99.90;;;;;;6175898;23;20452;-89
2021/11/27 00:36:44;;;;;;;4.30;2.90;;;2.20;99.90;;;;;;6176343;23;20722;-90
2021/11/27 00:39:11;;;;;;;5.73;3.47;;;2.20;99.90;;;;;;6176108;23;20159;-90
2021/11/27 00:41:38;;;;;;;4.00;2.97;;;2.10;99.90;;;;;;6177012;23;20464;-90
2021/11/27 00:44:04;;;;;;;4.57;3.23;;;2.20;99.90;;;;;;6178295;23;20400;-90
2021/11/27 00:46:30;;;;;;;3.67;3.30;;;2.20;99.90;;;;;;6176466;23;20467;-90
2021/11/27 00:48:55;;;;;;;4.57;2.90;;;2.30;99.90;;;;;;6174901;23;20402;-91
2021/11/27 00:51:23;;;;;;;3.10;2.80;;;2.30;99.90;;;;;;6175825;23;20531;-90
2021/11/27 00:53:50;;;;;;;3.47;3.17;;;2.30;99.90;;;;;;6174971;23;20206;-90
2021/11/27 00:56:16;;;;;;;3.70;3.10;;;2.40;99.90;;;;;;6175187;23;20903;-89
2021/11/27 00:58:44;;;;;;;5.77;3.87;;;2.50;99.90;;;;;;6175464;23;20398;-90
2021/11/27 01:01:31;;;;;;;4.63;4.13;;;2.50;99.90;;;;;;6174209;23;20491;-91
2021/11/27 01:03:59;;;;;;;4.17;3.77;;;2.50;99.90;;;;;;6177614;23;20397;-90
2021/11/27 01:06:26;;;;;;;6.33;5.37;;;2.40;99.90;;;;;;6175259;23;20426;-90
2021/11/27 01:08:55;;;;;;;5.40;4.40;;;2.10;99.90;;;;;;6173535;23;20417;-90
2021/11/27 01:11:25;;;;;;;5.60;4.33;;;2.00;99.90;;;;;;6176637;23;20528;-89
2021/11/27 01:13:56;;;;;;;6.50;4.70;;;1.90;99.90;;;;;;6173938;23;20760;-90
2021/11/27 01:16:27;;;;;;;6.50;4.23;;;1.80;99.90;;;;;;6176539;23;20481;-90
2021/11/27 01:19:04;;;;;;;5.00;4.10;;;1.80;99.90;;;;;;6176331;23;20401;-90
2021/11/27 01:21:43;;;;;;;6.23;4.03;;;1.70;99.90;;;;;;6174597;23;20417;-89
2021/11/27 01:24:12;;;;;;;4.80;3.60;;;1.80;99.90;;;;;;6173241;23;20387;-89
2021/11/27 01:26:38;;;;;;;5.70;4.20;;;1.90;99.90;;;;;;6173228;23;20405;-89
2021/11/27 01:29:05;;;;;;;4.17;3.63;;;1.90;99.90;;;;;;6171610;23;20899;-90
2021/11/27 01:31:32;;;;;;;6.10;4.07;;;1.80;99.90;;;;;;6169582;23;21014;-89
2021/11/27 01:33:58;;;;;;;5.23;3.80;;;1.80;99.90;;;;;;6171154;23;20399;-90
2021/11/27 01:36:24;;;;;;;5.60;4.37;;;1.80;99.90;;;;;;6174492;23;20418;-89
2021/11/27 01:38:50;;;;;;;4.73;4.10;;;1.80;99.90;;;;;;6174312;23;20254;-90
2021/11/27 01:41:16;;;;;;;4.40;3.60;;;1.90;99.90;;;;;;6179238;23;20448;-89
2021/11/27 01:43:44;;;;;;;4.07;3.63;;;1.70;99.90;;;;;;6178874;23;20398;-89
2021/11/27 01:46:10;;;;;;;4.23;3.67;;;1.70;99.90;;;;;;6189512;23;20478;-90
2021/11/27 01:48:38;;;;;;;3.50;3.20;;;1.60;99.90;;;;;;6187107;23;20715;-90
2021/11/27 01:51:15;;;;;;;5.13;4.00;;;1.50;99.90;;;;;;6179216;23;20477;-89
2021/11/27 01:53:44;;;;;;;3.60;3.30;;;1.40;99.90;;;;;;6178171;23;20477;-89
2021/11/27 01:56:14;;;;;;;4.30;3.90;;;1.40;99.90;;;;;;6175837;23;20402;-90
2021/11/27 01:58:40;;;;;;;3.47;3.10;;;1.40;99.90;;;;;;6175783;23;21038;-89
2021/11/27 02:01:14;;;;;;;3.87;3.47;;;1.50;99.90;;;;;;6174432;23;20437;-89
2021/11/27 02:03:40;;;;;;;3.70;3.03;;;1.60;99.90;;;;;;6175874;23;20394;-89
2021/11/27 02:06:07;;;;;;;4.07;3.37;;;1.60;99.90;;;;;;6177940;23;20398;-91
2021/11/27 02:08:34;;;;;;;3.90;2.73;;;1.60;99.90;;;;;;6170439;23;20389;-90
2021/11/27 02:11:02;;;;;;;5.10;4.27;;;1.60;99.90;;;;;;6177121;23;20468;-91
2021/11/27 02:13:28;;;;;;;3.90;3.50;;;1.70;99.90;;;;;;6175831;23;20873;-91
2021/11/27 02:16:08;;;;;;;5.23;3.90;;;1.60;99.90;;;;;;6178040;23;20403;-91
2021/11/27 02:18:36;;;;;;;6.90;3.80;;;1.70;99.90;;;;;;6177582;23;20163;-89
2021/11/27 02:21:16;;;;;;;3.23;2.93;;;1.70;99.90;;;;;;6174687;23;20437;-90
2021/11/27 02:23:42;;;;;;;4.87;4.20;;;1.90;99.90;;;;;;6174920;23;20486;-90
2021/11/27 02:26:15;;;;;;;4.40;3.80;;;2.20;99.90;;;;;;6174283;23;20383;-89
2021/11/27 02:28:46;;;;;;;3.87;3.50;;;2.40;99.90;;;;;;6174818;23;20399;-90
2021/11/27 02:31:12;;;;;;;3.93;2.90;;;2.60;99.90;;;;;;6172831;23;20581;-90
2021/11/27 02:33:38;;;;;;;4.43;3.73;;;2.70;99.90;;;;;;6172332;23;20414;-89
2021/11/27 02:36:04;;;;;;;4.03;3.63;;;2.90;99.90;;;;;;6172728;23;20163;-89
2021/11/27 02:38:30;;;;;;;2.93;2.73;;;2.90;99.90;;;;;;6174304;23;20486;-88
2021/11/27 02:40:56;;;;;;;2.70;2.50;;;3.10;99.90;;;;;;6176101;23;20438;-88
2021/11/27 02:43:22;;;;;;;3.83;2.77;;;3.10;99.90;;;;;;6179151;23;20957;-88
2021/11/27 02:45:51;;;;;;;2.40;2.20;;;3.20;99.90;;;;;;6177050;23;20170;-88
2021/11/27 02:48:18;;;;;;;3.60;2.70;;;3.20;99.90;;;;;;6180592;23;20387;-88
2021/11/27 02:50:44;;;;;;;3.27;2.97;;;3.20;99.90;;;;;;6179180;23;20585;-89
2021/11/27 02:53:10;;;;;;;2.43;2.23;;;3.20;99.90;;;;;;6176781;23;20429;-89
2021/11/27 02:55:36;;;;;;;3.13;2.50;;;3.20;99.90;;;;;;6177107;23;20170;-88
2021/11/27 02:58:01;;;;;;;2.93;2.23;;;3.20;99.90;;;;;;6176180;23;20163;-89
2021/11/27 03:00:28;;;;;;;2.53;2.07;;;3.20;99.90;;;;;;6175121;23;20436;-88
2021/11/27 03:02:54;;;;;;;2.87;2.37;;;3.20;99.90;;;;;;6177583;23;20860;-89
2021/11/27 03:05:20;;;;;;;2.50;2.30;;;3.20;99.90;;;;;;6176093;23;20414;-89
2021/11/27 03:07:46;;;;;;;2.30;2.10;;;3.20;99.90;;;;;;6175174;23;20395;-87
2021/11/27 03:10:15;;;;;;;2.03;1.83;;;3.40;99.90;;;;;;6175217;23;20431;-89
2021/11/27 03:12:40;;;;;;;2.27;2.07;;;3.40;99.90;;;;;;6175292;23;20457;-90
2021/11/27 03:15:11;;;;;;;2.27;1.80;;;3.40;99.90;;;;;;6178265;23;20394;-90
2021/11/27 03:17:40;;;;;;;1.97;1.80;;;3.50;99.90;;;;;;6195714;23;20168;-89
2021/11/27 03:20:09;;;;;;;2.27;1.87;;;3.40;99.90;;;;;;6173269;23;20656;-89
2021/11/27 03:22:35;;;;;;;4.00;2.33;;;3.40;99.90;;;;;;6174175;23;20482;-89
2021/11/27 03:25:02;;;;;;;3.20;2.10;;;3.40;99.90;;;;;;6177272;23;20387;-89
2021/11/27 03:27:28;;;;;;;3.07;2.30;;;3.40;99.90;;;;;;6173527;23;20386;-89
2021/11/27 03:29:54;;;;;;;2.50;2.30;;;3.40;99.90;;;;;;6175606;23;20426;-90
2021/11/27 03:32:20;;;;;;;2.03;1.83;;;3.30;99.90;;;;;;6177636;23;20167;-90
2021/11/27 03:34:48;;;;;;;1.90;1.70;;;3.40;99.90;;;;;;6176958;23;20468;-91
2021/11/27 03:37:14;;;;;;;2.60;2.07;;;3.40;99.90;;;;;;6178116;23;20210;-91
2021/11/27 03:39:40;;;;;;;2.00;1.90;;;3.40;99.90;;;;;;6176610;23;20410;-90
2021/11/27 03:42:10;;;;;;;1.90;1.70;;;3.50;99.90;;;;;;6175708;23;21065;-90
2021/11/27 03:44:36;;;;;;;2.70;1.70;;;3.60;99.90;;;;;;6175000;23;20960;-89
2021/11/27 03:47:05;;;;;;;1.40;1.30;;;3.60;99.90;;;;;;6178852;23;20478;-89
2021/11/27 03:49:32;;;;;;;2.63;1.67;;;3.70;99.90;;;;;;6174855;23;20489;-89
2021/11/27 03:52:02;;;;;;;1.53;1.37;;;3.70;99.90;;;;;;6175698;23;20704;-89
2021/11/27 03:54:28;;;;;;;1.30;1.10;;;3.70;99.90;;;;;;6176715;23;20391;-90
2021/11/27 03:57:03;;;;;;;1.30;1.20;;;3.70;99.90;;;;;;6175759;23;20513;-90
2021/11/27 03:59:29;;;;;;;1.83;1.37;;;3.70;99.90;;;;;;6177019;23;20391;-90
2021/11/27 04:02:15;;;;;;;1.10;1.00;;;3.70;99.90;;;;;;6176236;23;20399;-90
2021/11/27 04:04:42;;;;;;;1.33;1.23;;;3.70;99.90;;;;;;6178135;23;20165;-91
2021/11/27 04:07:08;;;;;;;1.40;1.30;;;3.70;99.90;;;;;;6176835;23;20439;-90
2021/11/27 04:09:34;;;;;;;1.10;1.00;;;3.70;99.90;;;;;;6173788;23;20485;-89
2021/11/27 04:11:59;;;;;;;2.80;1.30;;;3.80;99.90;;;;;;6174932;23;20403;-89
2021/11/27 04:14:25;;;;;;;1.13;0.93;;;3.70;99.90;;;;;;6176244;23;20603;-89
2021/11/27 04:16:51;;;;;;;2.17;1.20;;;3.70;99.90;;;;;;6179473;23;20222;-90
2021/11/27 04:19:17;;;;;;;2.03;1.53;;;3.80;99.90;;;;;;6173996;23;20169;-90
2021/11/27 04:21:43;;;;;;;1.10;1.00;;;3.80;99.90;;;;;;6171733;23;20692;-90
2021/11/27 04:24:08;;;;;;;1.03;1.00;;;3.80;99.90;;;;;;6175781;23;20164;-89
2021/11/27 04:26:34;;;;;;;0.90;0.90;;;3.70;99.90;;;;;;6173538;23;20275;-90
2021/11/27 04:29:02;;;;;;;1.90;0.80;;;3.80;99.90;;;;;;6173204;23;20157;-91
2021/11/27 04:31:31;;;;;;;0.93;0.93;;;3.80;99.90;;;;;;6174854;23;20195;-90
2021/11/27 04:33:57;;;;;;;2.73;1.37;;;3.80;99.90;;;;;;6173902;23;20403;-90
2021/11/27 04:36:23;;;;;;;1.53;1.20;;;3.80;99.90;;;;;;6175748;23;20431;-91
2021/11/27 04:38:48;;;;;;;2.03;1.40;;;3.80;99.90;;;;;;6175217;23;20391;-90
2021/11/27 04:41:14;;;;;;;1.20;1.10;;;3.70;99.90;;;;;;6177079;23;20450;-91
2021/11/27 04:43:41;;;;;;;1.07;1.00;;;3.70;99.90;;;;;;6179124;23;20163;-90
2021/11/27 04:46:06;;;;;;;0.90;0.83;;;3.70;99.90;;;;;;6182754;23;20401;-90
2021/11/27 04:48:32;;;;;;;1.17;0.87;;;3.80;99.90;;;;;;6185354;23;20395;-90
2021/11/27 04:50:58;;;;;;;1.60;1.27;;;3.90;99.90;;;;;;6176276;23;20210;-91
2021/11/27 04:53:24;;;;;;;1.07;1.07;;;3.90;99.90;;;;;;6175876;23;20168;-90
2021/11/27 04:55:50;;;;;;;1.60;1.10;;;3.90;99.90;;;;;;6178069;23;20825;-91
2021/11/27 04:58:16;;;;;;;1.30;0.73;;;4.00;99.90;;;;;;6178211;23;20422;-92
2021/11/27 05:00:45;;;;;;;0.97;0.87;;;4.10;99.90;;;;;;6176755;23;20404;-91
2021/11/27 05:03:11;;;;;;;2.20;0.90;;;4.10;99.90;;;;;;6178412;23;20392;-91
2021/11/27 05:05:37;;;;;;;1.17;1.00;;;4.10;99.90;;;;;;6178150;23;20405;-90
2021/11/27 05:08:03;;;;;;;1.47;1.10;;;4.10;99.90;;;;;;6175120;23;20170;-92
2021/11/27 05:10:29;;;;;;;1.73;1.30;;;4.10;99.90;;;;;;6176775;23;20603;-91
2021/11/27 05:12:55;;;;;;;1.87;1.07;;;4.10;99.90;;;;;;6175866;23;20391;-90
2021/11/27 05:15:21;;;;;;;2.07;1.50;;;4.10;99.90;;;;;;6178625;23;20902;-92
2021/11/27 05:17:46;;;;;;;0.90;0.90;;;4.10;99.90;;;;;;6179241;23;20555;-92
2021/11/27 05:20:12;;;;;;;1.43;0.90;;;4.10;99.90;;;;;;6176074;23;20170;-90
2021/11/27 05:22:53;;;;;;;1.27;1.17;;;4.10;99.90;;;;;;6171843;23;20175;-88
2021/11/27 05:25:19;;;;;;;1.40;1.30;;;4.00;99.90;;;;;;6173225;23;20405;-88
2021/11/27 05:27:44;;;;;;;1.50;1.13;;;4.00;99.90;;;;;;6173163;23;20387;-88
2021/11/27 05:30:12;;;;;;;1.20;0.77;;;4.00;99.90;;;;;;6173419;23;20185;-91
2021/11/27 05:32:51;;;;;;;1.37;1.17;;;3.90;99.90;;;;;;6172006;23;20179;-89
2021/11/27 05:35:17;;;;;;;1.33;0.93;;;3.90;99.90;;;;;;6173929;23;20393;-89
2021/11/27 05:37:44;;;;;;;1.07;0.97;;;3.90;99.90;;;;;;6176558;23;20442;-90
2021/11/27 05:40:10;;;;;;;1.17;0.90;;;3.90;99.90;;;;;;6178232;23;20386;-90
2021/11/27 05:42:36;;;;;;;1.10;1.10;;;3.80;99.90;;;;;;6177504;23;20587;-89
2021/11/27 05:45:02;;;;;;;1.10;1.00;;;3.80;99.90;;;;;;6176542;23;20780;-89
2021/11/27 05:47:28;;;;;;;1.10;1.00;;;3.70;99.90;;;;;;6178529;23;20398;-89
2021/11/27 05:49:54;;;;;;;1.90;1.33;;;3.70;99.90;;;;;;6178721;23;20502;-89
2021/11/27 05:52:20;;;;;;;2.10;1.20;;;3.70;99.90;;;;;;6177671;23;20173;-90
2021/11/27 05:54:46;;;;;;;1.40;1.00;;;3.60;99.90;;;;;;6177741;23;20398;-89
2021/11/27 05:57:12;;;;;;;1.63;1.23;;;3.60;99.90;;;;;;6175557;23;20412;-89
2021/11/27 05:59:37;;;;;;;1.47;1.37;;;3.60;99.90;;;;;;6175690;23;20172;-90
2021/11/27 06:02:03;;;;;;;0.80;0.80;;;3.60;99.90;;;;;;6178350;23;20272;-90
2021/11/27 06:04:29;;;;;;;1.20;1.10;;;3.70;99.90;;;;;;6178504;23;20640;-92
2021/11/27 06:06:56;;;;;;;0.97;0.90;;;3.60;99.90;;;;;;6176825;23;20652;-90
2021/11/27 06:09:22;;;;;;;1.63;1.00;;;3.60;99.90;;;;;;6179851;23;20164;-91
2021/11/27 06:11:48;;;;;;;1.30;1.20;;;3.70;99.90;;;;;;6180857;23;20407;-92
2021/11/27 06:14:13;;;;;;;1.00;0.90;;;3.80;99.90;;;;;;6180474;23;20622;-92
2021/11/27 06:16:39;;;;;;;1.60;1.50;;;3.70;99.90;;;;;;6199537;23;20167;-91
2021/11/27 06:19:05;;;;;;;1.90;1.10;;;3.70;99.90;;;;;;6186216;23;20214;-91
2021/11/27 06:21:31;;;;;;;0.77;0.73;;;3.60;99.90;;;;;;6181757;23;20622;-91
2021/11/27 06:23:57;;;;;;;1.10;1.10;;;3.60;99.90;;;;;;6178829;23;20889;-90
2021/11/27 06:26:24;;;;;;;0.93;0.93;;;3.70;99.90;;;;;;6178249;23;20171;-89
2021/11/27 06:28:50;;;;;;;1.00;0.90;;;3.70;99.90;;;;;;6180002;23;20398;-91
2021/11/27 06:31:16;;;;;;;0.90;0.83;;;3.70;99.90;;;;;;6177135;23;20438;-91
2021/11/27 06:33:42;;;;;;;0.97;0.90;;;3.70;99.90;;;;;;6177586;23;20394;-91
2021/11/27 06:36:08;;;;;;;1.63;1.10;;;3.70;99.90;;;;;;6178383;23;20454;-92
2021/11/27 06:38:36;;;;;;;3.23;1.10;;;3.70;99.90;;;;;;6179394;23;20160;-91
2021/11/27 06:41:03;;;;;;;0.90;0.90;;;3.70;99.90;;;;;;6180986;23;20420;-91
2021/11/27 06:43:29;;;;;;;1.33;0.80;;;3.60;99.90;;;;;;6180308;23;20387;-91
2021/11/27 06:45:55;;;;;;;1.30;0.70;;;3.60;99.90;;;;;;6180689;23;20881;-89
2021/11/27 06:48:21;;;;;;;0.93;0.93;;;3.50;99.90;;;;;;6178113;23;20241;-90
2021/11/27 06:50:46;;;;;;;4.47;3.00;;;3.60;99.90;;;;;;6175318;23;20445;-90
2021/11/27 06:53:12;;;;;;;3.60;2.50;;;3.50;99.90;;;;;;6175935;23;20219;-90
2021/11/27 06:55:38;;;;;;;1.63;1.43;;;3.50;99.90;;;;;;6177844;23;20324;-91
2021/11/27 06:58:04;;;;;;;1.50;1.40;;;3.50;99.90;;;;;;6177190;23;20494;-89
2021/11/27 07:00:30;;;;;;;3.03;2.27;;;3.50;99.90;;;;;;6177031;23;20720;-88
2021/11/27 07:02:56;;;;;;;3.63;3.10;;;3.40;99.90;;;;;;6177151;23;20213;-90
2021/11/27 07:05:21;;;;;;;2.53;2.33;;;3.40;99.90;;;;;;6176692;23;20175;-87
2021/11/27 07:07:47;;;;;;;2.40;2.20;;;3.30;99.90;;;;;;6177870;23;20633;-90
2021/11/27 07:10:13;;;;;;;2.00;1.60;;;3.30;99.90;;;;;;6175435;23;20193;-88
2021/11/27 07:12:48;;;;;;;0.77;0.77;;;3.30;99.90;;;;;;6178116;23;20714;-92
2021/11/27 07:15:23;;;;;;;0.50;0.50;;;3.30;99.90;;;;;;6185635;23;20411;-87
2021/11/27 07:17:49;;;;;;;0.77;0.77;;;3.40;99.90;;;;;;6183904;23;20406;-90
2021/11/27 07:20:14;;;;;;;0.70;0.60;;;3.30;99.90;;;;;;6180225;23;20159;-91
2021/11/27 07:22:40;;;;;;;0.50;0.40;;;3.30;99.90;;;;;;6179805;23;20222;-91
2021/11/27 07:25:07;;;;;;;1.07;0.90;;;3.30;99.90;;;;;;6182472;23;20202;-92
2021/11/27 07:27:35;;;;;;;0.73;0.70;;;3.30;99.90;;;;;;6179515;23;20401;-92
2021/11/27 07:30:00;;;;;;;2.23;1.37;;;3.40;99.90;;;;;;6179860;23;20437;-94
2021/11/27 07:32:28;;;;;;;1.70;1.60;;;3.50;99.90;;;;;;6185219;23;20407;-93
2021/11/27 07:37:57;;;;;;;1.30;1.20;;;3.50;99.90;;;;;;6240197;22;20453;-95
2021/11/27 07:40:24;;;;;;;1.30;1.20;;;3.60;99.90;;;;;;6228023;23;20416;-96
2021/11/27 07:42:52;;;;;;;1.10;1.10;;;3.70;99.90;;;;;;6226296;23;20397;-94
2021/11/27 07:45:23;;;;;;;1.40;1.30;;;3.80;99.90;;;;;;6222019;22;20386;-94
2021/11/27 07:47:56;;;;;;;1.20;1.10;;;3.80;99.90;;;;;;6237501;23;20414;-93
2021/11/27 07:50:25;;;;;;;1.30;1.20;;;3.90;99.90;;;;;;6228579;23;20812;-94
2021/11/27 07:52:51;;;;;;;1.50;1.20;;;3.90;99.90;;;;;;6227608;23;20406;-95
2021/11/27 07:57:50;;;;;;;2.70;2.07;;;3.80;99.90;;;;;;6220209;23;20192;-93
2021/11/27 08:00:17;;;;;;;2.37;2.17;;;3.80;99.90;;;;;;6188282;23;20430;-94
2021/11/27 08:02:44;;;;;;;1.73;1.63;;;3.80;99.90;;;;;;6209424;23;20186;-94
2021/11/27 08:05:10;;;;;;;1.70;1.60;;;3.80;99.90;;;;;;6180819;23;20395;-96
2021/11/27 08:07:36;;;;;;;2.23;1.57;;;3.80;99.90;;;;;;6176721;23;20168;-95
2021/11/27 08:10:15;;;;;;;2.70;2.13;;;3.90;99.90;;;;;;6204773;23;20484;-95
2021/11/27 08:12:41;;;;;;;2.07;1.30;;;4.10;99.90;;;;;;6180403;23;20451;-94
2021/11/27 08:15:08;;;;;;;2.07;1.90;;;4.20;99.90;;;;;;6174710;23;20407;-94
2021/11/27 08:17:35;;;;;;;2.40;1.77;;;4.30;99.90;;;;;;6173802;23;20164;-93
2021/11/27 08:20:03;;;;;;;1.53;1.43;;;4.40;99.90;;;;;;6173918;23;20401;-94
2021/11/27 08:22:28;;;;;;;1.53;1.43;;;4.80;99.90;;;;;;6173155;23;20400;-91
2021/11/27 08:24:54;;;;;;;1.40;1.30;;;5.30;99.90;;;;;;6177231;23;20798;-95
2021/11/27 08:27:21;;;;;;;1.60;1.50;;;5.90;99.90;;;;;;6174495;23;20177;-93
2021/11/27 08:29:55;;;;;;;1.97;1.53;;;6.40;99.90;;;;;;6171974;23;20647;-93
2021/11/27 08:32:22;;;;;;;0.93;0.93;;;6.70;99.90;;;;;;6167604;23;20402;-92
2021/11/27 08:34:47;;;;;;;1.53;1.43;;;6.50;99.90;;;;;;6170913;23;20497;-93
2021/11/27 08:37:14;;;;;;;2.00;1.27;;;6.30;99.90;;;;;;6177666;23;20444;-94
2021/11/27 08:39:40;;;;;;;1.23;0.87;;;6.40;99.90;;;;;;6177496;23;20172;-96
2021/11/27 08:42:07;;;;;;;1.50;1.07;;;6.40;99.90;;;;;;6202087;23;20406;-95
2021/11/27 08:44:35;;;;;;;0.97;0.97;;;6.30;99.90;;;;;;6169960;23;20393;-92
2021/11/27 08:47:04;;;;;;;1.13;0.80;;;6.30;99.90;;;;;;6173866;23;20411;-93
2021/11/27 08:49:29;;;;;;;0.60;0.60;;;6.10;99.90;;;;;;6175614;23;20486;-94
2021/11/27 08:51:55;;;;;;;1.17;1.00;;;5.80;99.90;;;;;;6173696;23;20439;-92
2021/11/27 08:54:21;;;;;;;0.63;0.60;;;5.90;99.90;;;;;;6171338;23;20395;-91
2021/11/27 08:56:48;;;;;;;2.10;0.93;;;6.50;99.90;;;;;;6167791;23;20409;-92
2021/11/27 08:59:14;;;;;;;1.27;0.97;;;6.90;99.90;;;;;;6170474;23;20991;-94
2021/11/27 09:01:41;;;;;;;1.27;1.20;;;7.00;99.90;;;;;;6170846;23;20400;-94
2021/11/27 09:04:07;;;;;;;0.90;0.90;;;7.00;99.90;;;;;;6174165;23;20172;-94
2021/11/27 09:06:32;;;;;;;1.23;0.70;;;7.30;99.90;;;;;;6173213;23;20393;-94
2021/11/27 09:08:58;;;;;;;0.43;0.43;;;7.50;99.90;;;;;;6180895;23;20272;-93
2021/11/27 09:11:28;;;;;;;0.83;0.70;;;7.70;99.90;;;;;;6176749;23;20283;-94
2021/11/27 09:13:54;;;;;;;2.47;0.70;;;7.80;99.90;;;;;;6169871;23;20478;-92
2021/11/27 09:16:20;;;;;;;1.00;1.00;;;7.50;99.90;;;;;;6195278;23;20383;-92
2021/11/27 09:18:45;;;;;;;0.50;0.50;;;7.40;99.90;;;;;;6182429;23;20883;-93
2021/11/27 09:21:12;;;;;;;0.90;0.70;;;7.40;99.90;;;;;;6177141;23;20171;-92
2021/11/27 09:23:38;;;;;;;0.70;0.70;;;7.10;99.90;;;;;;6179014;23;20168;-94
2021/11/27 09:26:04;;;;;;;1.77;0.80;;;6.60;99.90;;;;;;6175161;23;20414;-92
2021/11/27 09:28:30;;;;;;;0.97;0.87;;;6.50;99.90;;;;;;6173258;23;20801;-93
2021/11/27 09:30:56;;;;;;;1.70;1.10;;;6.60;99.90;;;;;;6148661;23;20199;-90
2021/11/27 09:33:21;;;;;;;0.73;0.60;;;6.60;99.90;;;;;;6171680;23;20402;-87
2021/11/27 09:35:59;;;;;;;1.20;0.80;;;6.70;99.90;;;;;;6186529;23;20168;-95
2021/11/27 09:38:25;;;;;;;0.73;0.73;;;6.90;99.90;;;;;;6171334;23;20743;-88
2021/11/27 09:41:03;;;;;;;1.60;0.90;;;7.00;99.90;;;;;;6166081;23;20405;-89
2021/11/27 09:43:29;;;;;;;2.87;0.97;;;7.30;99.90;;;;;;6164353;23;20405;-90
2021/11/27 09:45:55;;;;;;;1.50;0.70;;;7.70;99.90;;;;;;6166842;23;20474;-88
2021/11/27 09:48:21;;;;;;;0.83;0.83;;;7.30;99.90;;;;;;6167762;23;20399;-89
2021/11/27 09:50:49;;;;;;;4.27;2.40;;;7.20;99.90;;;;;;6166196;23;20442;-84
2021/11/27 09:53:17;;;;;;;1.00;0.90;;;7.20;99.90;;;;;;6163829;23;20813;-88
2021/11/27 09:55:47;;;;;;;1.70;1.10;;;7.20;99.90;;;;;;6164349;23;20406;-89
2021/11/27 09:58:13;;;;;;;1.60;1.40;;;7.50;99.90;;;;;;6164104;23;20424;-88
2021/11/27 10:00:39;;;;;;;1.53;1.20;;;8.10;99.90;;;;;;6167126;23;20481;-89
2021/11/27 10:03:10;;;;;;;2.20;1.77;;;8.60;99.90;;;;;;6165406;23;20175;-89
2021/11/27 10:05:39;;;;;;;1.73;1.10;;;9.30;99.90;;;;;;6166053;23;20470;-89
2021/11/27 10:08:05;;;;;;;1.03;0.90;;;10.00;98.90;;;;;;6165979;23;20474;-89
2021/11/27 10:10:31;;;;;;;1.60;0.70;;;10.30;97.00;;;;;;6166719;23;20549;-87
2021/11/27 10:13:02;;;;;;;2.97;0.77;;;10.30;96.60;;;;;;6156904;23;20926;-87
2021/11/27 10:15:28;;;;;;;2.60;1.13;;;11.00;96.20;;;;;;6154130;23;20485;-88
2021/11/27 10:17:57;;;;;;;0.80;0.63;;;11.80;94.70;;;;;;6162522;23;20407;-89
2021/11/27 10:20:24;;;;;;;3.17;1.13;;;11.70;93.40;;;;;;6159041;23;20901;-86
2021/11/27 10:22:52;;;;;;;2.97;1.30;;;11.20;93.50;;;;;;6165966;23;20413;-87
2021/11/27 10:25:23;;;;;;;2.07;1.40;;;10.90;93.80;;;;;;6165905;23;20390;-88
2021/11/27 10:27:49;;;;;;;1.80;1.17;;;9.30;95.70;;;;;;6165609;23;21031;-87
2021/11/27 10:30:15;;;;;;;0.97;0.97;;;8.80;96.90;;;;;;6165641;23;21135;-85
2021/11/27 10:32:50;;;;;;;1.13;1.03;;;8.30;97.90;;;;;;6166192;23;20401;-84
2021/11/27 10:35:21;;;;;;;1.83;0.97;;;7.80;98.50;;;;;;6165645;23;20430;-84
2021/11/27 10:37:49;;;;;;;3.13;0.70;;;7.50;98.80;;;;;;6164160;23;20402;-83
2021/11/27 10:40:19;;;;;;;0.90;0.70;;;7.40;99.50;;;;;;6195968;23;21097;-85
2021/11/27 10:42:49;;;;;;;2.43;0.70;;;7.40;99.30;;;;;;6164499;23;20939;-85
2021/11/27 10:45:19;;;;;;;1.27;0.80;;;7.90;98.50;;;;;;6165916;23;20480;-85
2021/11/27 10:47:49;;;;;;;1.20;0.60;;;9.00;97.30;;;;;;6166078;23;20751;-85
2021/11/27 10:50:22;;;;;;;2.30;0.77;;;9.80;94.90;;;;;;6165973;23;20456;-83
2021/11/27 10:52:50;;;;;;;1.43;0.80;;;9.60;94.80;;;;;;6164498;23;20912;-85
2021/11/27 10:55:24;;;;;;;1.17;0.70;;;9.20;95.30;;;;;;6165391;23;20731;-84
2021/11/27 10:57:55;;;;;;;2.70;1.10;;;8.20;96.60;;;;;;6167867;23;20474;-83
2021/11/27 11:00:40;;;;;;;2.10;0.60;;;7.70;97.70;;;;;;6170931;23;20391;-84
2021/11/27 11:03:30;;;;;;;1.80;0.73;;;7.50;98.50;;;;;;6173307;23;20414;-83
2021/11/27 11:05:59;;;;;;;0.53;0.53;;;7.10;98.80;;;;;;6175064;23;20405;-84
2021/11/27 11:08:37;;;;;;;1.90;0.70;;;7.00;99.20;;;;;;6172364;23;20409;-83
2021/11/27 11:11:24;;;;;;;2.10;0.70;;;6.90;99.60;;;;;;6202273;23;20435;-83
2021/11/27 11:13:54;;;;;;;1.67;1.00;;;6.90;99.90;;;;;;6174002;23;20406;-82
2021/11/27 11:16:21;;;;;;;1.07;0.97;;;6.90;99.90;;;;;;6172432;23;20456;-82
2021/11/27 11:18:52;;;;;;;3.27;1.20;;;6.90;99.90;;;;;;6168051;23;20797;-82
2021/11/27 11:21:19;;;;;;;3.53;1.00;;;6.80;99.90;;;;;;6168543;23;20553;-82
2021/11/27 11:23:45;;;;;;;2.30;0.90;;;6.70;99.90;;;;;;6168250;23;20403;-82
2021/11/27 11:26:20;;;;;;;1.27;0.87;;;6.70;99.90;;;;;;6167025;23;20395;-82
2021/11/27 11:28:55;;;;;;;1.53;0.70;;;6.50;99.90;;;;;;6165098;23;20885;-82
2021/11/27 11:31:32;;;;;;;0.67;0.50;;;6.30;99.90;;;;;;6163903;23;20919;-83
2021/11/27 11:34:00;;;;;;;1.73;1.10;;;6.20;99.90;;;;;;6162789;23;20462;-83
2021/11/27 11:36:26;;;;;;;2.93;1.07;;;6.20;99.90;;;;;;6163576;23;20877;-83
2021/11/27 11:38:54;;;;;;;3.20;1.73;;;6.10;99.90;;;;;;6164602;23;20441;-84
2021/11/27 11:41:23;;;;;;;3.43;1.80;;;6.10;99.90;;;;;;6163757;23;20733;-84
2021/11/27 11:43:50;;;;;;;1.23;1.10;;;6.10;99.90;;;;;;6162047;23;20671;-85
2021/11/27 11:46:17;;;;;;;2.20;1.07;;;6.20;99.90;;;;;;6165058;23;20391;-85
2021/11/27 11:49:00;;;;;;;1.20;0.70;;;6.20;99.90;;;;;;6163045;23;20920;-84
2021/11/27 11:51:44;;;;;;;4.10;0.93;;;6.40;99.90;;;;;;6163250;23;20452;-84
2021/11/27 11:54:11;;;;;;;0.90;0.90;;;6.40;99.90;;;;;;6164336;23;20402;-83
2021/11/27 11:56:40;;;;;;;1.60;0.70;;;6.40;99.90;;;;;;6167503;23;20925;-84
2021/11/27 11:59:32;;;;;;;1.73;0.83;;;6.50;99.90;;;;;;6163012;23;20822;-84
2021/11/27 12:02:12;;;;;;;0.80;0.60;;;6.30;99.90;;;;;;6163672;23;20773;-88
2021/11/27 12:04:58;;;;;;;1.13;0.80;;;6.30;99.90;;;;;;6165283;23;21347;-86
2021/11/27 12:07:47;;;;;;;0.53;0.53;;;6.40;99.90;;;;;;6144677;23;20395;-86
2021/11/27 12:10:38;;;;;;;1.67;0.80;;;6.30;99.90;;;;;;6163998;23;20461;-90
2021/11/27 12:13:07;;;;;;;0.60;0.60;;;6.20;99.90;;;;;;6164659;23;20585;-87
2021/11/27 12:15:41;;;;;;;0.70;0.70;;;6.20;99.90;;;;;;6172787;23;20790;-87
2021/11/27 12:18:15;;;;;;;1.20;0.63;;;6.10;99.90;;;;;;6170213;23;20891;-89
2021/11/27 12:21:01;;;;;;;0.93;0.67;;;6.10;99.90;;;;;;6166127;23;20889;-89
2021/11/27 12:23:36;;;;;;;1.53;0.80;;;6.30;99.90;;;;;;6165757;23;20477;-88
2021/11/27 12:28:50;;;;;;;2.30;0.77;;;6.30;99.90;;;;;;6191947;23;20391;-87
2021/11/27 12:31:19;;;;;;;0.77;0.77;;;6.20;99.90;;;;;;6167153;23;20447;-88
2021/11/27 12:34:29;;;;;;;1.47;0.87;;;6.00;99.90;;;;;;6167340;23;20391;-88
2021/11/27 12:36:54;;;;;;;1.67;1.57;;;5.90;99.90;;;;;;6163894;23;20408;-87
2021/11/27 12:39:20;;;;;;;0.97;0.47;;;5.80;99.90;;;;;;6162525;23;20398;-89
2021/11/27 12:42:05;;;;;;;0.57;0.57;;;5.80;99.90;;;;;;6166510;23;20182;-87
2021/11/27 12:44:50;;;;;;;1.70;0.60;;;6.10;99.90;;;;;;6166377;23;20449;-90
2021/11/27 12:47:23;;;;;;;0.70;0.53;;;6.60;99.90;;;;;;6166581;23;20483;-89
2021/11/27 12:49:58;;;;;;;0.50;0.50;;;6.80;99.90;;;;;;6165188;23;20525;-88
2021/11/27 12:52:52;;;;;;;0.87;0.70;;;6.90;99.90;;;;;;6166645;23;20422;-89
2021/11/27 12:55:18;;;;;;;1.23;0.57;;;6.90;99.90;;;;;;6139441;23;20739;-87
2021/11/27 12:57:48;;;;;;;0.77;0.77;;;6.70;99.90;;;;;;6161487;23;20773;-89
2021/11/27 13:00:18;;;;;;;1.67;1.00;;;6.80;99.90;;;;;;6166188;23;20607;-88
2021/11/27 13:03:02;;;;;;;0.60;0.60;;;6.70;99.90;;;;;;6164703;23;20405;-89
2021/11/27 13:05:34;;;;;;;0.70;0.60;;;6.30;99.90;;;;;;6164378;23;20436;-89
2021/11/27 13:08:02;;;;;;;1.10;0.90;;;6.00;99.90;;;;;;6165406;23;20399;-90
2021/11/27 13:10:33;;;;;;;2.77;1.70;;;6.00;99.90;;;;;;6165937;23;20529;-89
2021/11/27 13:13:10;;;;;;;0.67;0.63;;;6.00;99.90;;;;;;6165065;23;20394;-88